Time;durP1;ratioP1;P1;durP2;ratioP2;P2;SDS_P1;SDS_P2;PMS_P1;PMS_P2;Temp;Humidity;BMP_temperature;BMP_pressure;BME280_temperature;BME280_humidity;BME280_pressure;Samples;Min_cycle;Max_cycle;Signal;HPM_P1;HPM_P2
2022/08/03 00:01:40;;;;;;;;;;;;;;;19.77;54.28;99807.25;5068549;28;19935;-69
2022/08/03 00:04:07;;;;;;;;;;;;;;;19.74;54.41;99804.34;5066464;28;19928;-69
2022/08/03 00:06:32;;;;;;;;;;;;;;;19.71;54.69;99808.59;5068693;28;20423;-70
2022/08/03 00:08:58;;;;;;;;;;;;;;;19.67;54.69;99805.69;5047645;28;19955;-70
2022/08/03 00:11:25;;;;;;;;;;;;;;;19.63;54.77;99803.94;5064505;28;19936;-71
2022/08/03 00:13:51;;;;;;;;;;;;;;;19.55;55.02;99811.94;5066405;28;19928;-71
2022/08/03 00:16:17;;;;;;;;;;;;;;;19.49;55.31;99807.75;5070070;28;20035;-68
2022/08/03 00:18:42;;;;;;;;;;;;;;;19.42;55.57;99810.22;5066464;28;20433;-65
2022/08/03 00:21:08;;;;;;;;;;;;;;;19.34;55.86;99811.09;5050501;28;19958;-66
2022/08/03 00:23:34;;;;;;;;;;;;;;;19.25;55.92;99802.84;5065862;28;20057;-67
2022/08/03 00:26:00;;;;;;;;;;;;;;;19.22;56.10;99806.28;5050229;28;19928;-70
2022/08/03 00:28:27;;;;;;;;;;;;;;;19.17;56.31;99812.00;5048160;28;19929;-69
2022/08/03 00:30:54;;;;;;;;;;;;;;;19.13;56.52;99809.88;5069035;28;19928;-70
2022/08/03 00:33:20;;;;;;;;;;;;;;;19.14;56.66;99807.94;5068767;28;20403;-70
2022/08/03 00:35:46;;;;;;;;;;;;;;;19.14;56.66;99813.50;5069226;28;19958;-69
2022/08/03 00:38:12;;;;;;;;;;;;;;;19.08;56.72;99812.03;5069302;28;19928;-70
2022/08/03 00:40:37;;;;;;;;;;;;;;;19.06;56.75;99811.53;5064028;28;19998;-69
2022/08/03 00:43:05;;;;;;;;;;;;;;;19.05;56.84;99813.53;5066926;28;19933;-70
2022/08/03 00:45:33;;;;;;;;;;;;;;;19.04;57.32;99802.75;5067468;28;19928;-71
2022/08/03 00:47:59;;;;;;;;;;;;;;;19.00;57.48;99805.38;5068092;28;19928;-66
2022/08/03 00:50:26;;;;;;;;;;;;;;;18.97;57.81;99804.06;5061481;28;19928;-66
2022/08/03 00:52:54;;;;;;;;;;;;;;;19.02;57.97;99805.84;5065084;28;20390;-71
2022/08/03 00:55:20;;;;;;;;;;;;;;;19.08;57.70;99810.09;5066317;28;19974;-70
2022/08/03 00:57:46;;;;;;;;;;;;;;;19.09;57.98;99799.78;5048685;28;20406;-70
2022/08/03 01:00:13;;;;;;;;;;;;;;;19.03;58.31;99803.91;5063553;28;20406;-69
2022/08/03 01:02:40;;;;;;;;;;;;;;;18.95;58.52;99800.00;5062780;28;20169;-71
2022/08/03 01:05:06;;;;;;;;;;;;;;;18.95;58.40;99800.00;5067154;28;19928;-70
2022/08/03 01:07:40;;;;;;;;;;;;;;;18.95;58.59;99800.00;5066089;28;19928;-69
2022/08/03 01:10:12;;;;;;;;;;;;;;;18.88;58.68;99799.69;5066863;28;19952;-70
2022/08/03 01:12:40;;;;;;;;;;;;;;;18.84;58.70;99803.13;5064875;28;19963;-68
2022/08/03 01:15:09;;;;;;;;;;;;;;;18.88;58.81;99799.69;5050075;28;19955;-70
2022/08/03 01:17:38;;;;;;;;;;;;;;;18.85;58.96;99795.63;5066607;28;20019;-70
2022/08/03 01:20:07;;;;;;;;;;;;;;;18.89;59.07;99801.31;5065566;28;20032;-69
2022/08/03 01:22:43;;;;;;;;;;;;;;;18.85;59.35;99795.63;5062413;28;19929;-69
2022/08/03 01:25:13;;;;;;;;;;;;;;;18.77;59.34;99802.81;5066901;28;19986;-69
2022/08/03 01:27:46;;;;;;;;;;;;;;;18.72;59.54;99794.69;5066304;28;19928;-70
2022/08/03 01:30:13;;;;;;;;;;;;;;;18.72;59.57;99800.22;5067955;28;20399;-70
2022/08/03 01:32:41;;;;;;;;;;;;;;;18.71;59.79;99793.88;5064919;28;20019;-69
2022/08/03 01:35:08;;;;;;;;;;;;;;;18.67;59.84;99804.00;5047918;28;19928;-69
2022/08/03 01:37:38;;;;;;;;;;;;;;;18.66;60.01;99796.00;5067152;28;20383;-70
2022/08/03 01:40:05;;;;;;;;;;;;;;;18.64;59.86;99801.06;5065443;28;20789;-70
2022/08/03 01:42:31;;;;;;;;;;;;;;;18.63;59.94;99802.22;5046670;28;20019;-70
2022/08/03 01:44:57;;;;;;;;;;;;;;;18.64;59.76;99798.28;5064436;28;20019;-70
2022/08/03 01:47:26;;;;;;;;;;;;;;;18.62;59.65;99795.03;5067908;28;19981;-69
2022/08/03 01:49:52;;;;;;;;;;;;;;;18.58;60.03;99803.19;5068603;28;19928;-69
2022/08/03 01:52:19;;;;;;;;;;;;;;;18.58;60.20;99800.41;5050819;28;19955;-70
2022/08/03 01:54:47;;;;;;;;;;;;;;;18.60;60.01;99805.63;5068439;28;19963;-69
2022/08/03 01:57:14;;;;;;;;;;;;;;;18.64;60.06;99801.06;5055343;28;20031;-70
2022/08/03 01:59:41;;;;;;;;;;;;;;;18.67;59.91;99798.47;5070092;28;19928;-69
2022/08/03 02:02:07;;;;;;;;;;;;;;;18.71;59.59;99801.34;5052567;28;19928;-69
2022/08/03 02:04:34;;;;;;;;;;;;;;;18.73;59.69;99801.03;5051862;28;20026;-66
2022/08/03 02:07:01;;;;;;;;;;;;;;;18.77;59.52;99805.59;5070431;28;19933;-67
2022/08/03 02:09:28;;;;;;;;;;;;;;;18.84;59.42;99814.19;5071582;28;19928;-66
2022/08/03 02:11:55;;;;;;;;;;;;;;;18.88;58.98;99814.34;5051238;28;20319;-67
2022/08/03 02:14:21;;;;;;;;;;;;;;;18.93;59.06;99819.69;5069692;28;19936;-67
2022/08/03 02:16:47;;;;;;;;;;;;;;;19.03;58.76;99813.00;5048998;28;20026;-67
2022/08/03 02:19:15;;;;;;;;;;;;;;;19.12;58.60;99812.97;5050015;28;19939;-66
2022/08/03 02:21:44;;;;;;;;;;;;;;;19.13;58.39;99823.75;5069163;28;19929;-69
2022/08/03 02:24:09;;;;;;;;;;;;;;;19.14;58.44;99824.56;5069520;28;20065;-70
2022/08/03 02:26:37;;;;;;;;;;;;;;;19.20;58.40;99816.84;5041926;28;20453;-71
2022/08/03 02:29:05;;;;;;;;;;;;;;;19.29;58.18;99819.63;5049130;28;19935;-70
2022/08/03 02:31:33;;;;;;;;;;;;;;;19.34;58.30;99817.44;5048021;28;19959;-69
2022/08/03 02:34:01;;;;;;;;;;;;;;;19.36;58.27;99815.19;5048274;28;19928;-71
2022/08/03 02:36:28;;;;;;;;;;;;;;;19.33;58.43;99815.03;5051426;28;20403;-70
2022/08/03 02:38:58;;;;;;;;;;;;;;;19.35;58.17;99821.03;5032222;28;20473;-70
2022/08/03 02:41:25;;;;;;;;;;;;;;;19.32;58.23;99819.75;5030169;28;19929;-70
2022/08/03 02:43:54;;;;;;;;;;;;;;;19.32;58.34;99819.75;5031757;28;20078;-66
2022/08/03 02:46:23;;;;;;;;;;;;;;;19.34;58.49;99824.97;5017088;28;20031;-67
2022/08/03 02:48:50;;;;;;;;;;;;;;;19.34;58.42;99822.19;5050574;28;19935;-70
2022/08/03 02:51:17;;;;;;;;;;;;;;;19.38;58.82;99823.16;5048850;28;20435;-67
2022/08/03 02:53:44;;;;;;;;;;;;;;;19.41;58.84;99823.28;5048802;28;20319;-66
2022/08/03 02:56:11;;;;;;;;;;;;;;;19.44;58.64;99827.38;5047528;28;19929;-67
2022/08/03 02:58:38;;;;;;;;;;;;;;;19.43;58.41;99834.03;5031841;28;20437;-67
2022/08/03 03:01:04;;;;;;;;;;;;;;;19.42;58.55;99835.19;5048692;28;19940;-68
2022/08/03 03:03:30;;;;;;;;;;;;;;;19.41;58.81;99830.78;5015711;28;19928;-70
2022/08/03 03:05:56;;;;;;;;;;;;;;;19.45;59.13;99829.00;5014388;28;19928;-69
2022/08/03 03:08:22;;;;;;;;;;;;;;;19.53;58.81;99833.66;5047131;28;20382;-71
2022/08/03 03:10:48;;;;;;;;;;;;;;;19.57;58.78;99836.59;5031205;28;19960;-69
2022/08/03 03:13:16;;;;;;;;;;;;;;;19.60;59.07;99833.13;5049487;28;20039;-70
2022/08/03 03:15:44;;;;;;;;;;;;;;;19.66;58.78;99833.75;5031939;28;19982;-69
2022/08/03 03:18:10;;;;;;;;;;;;;;;19.68;58.87;99839.78;5049458;28;19929;-70
2022/08/03 03:20:37;;;;;;;;;;;;;;;19.71;59.24;99836.31;5050032;28;19936;-70
2022/08/03 03:23:04;;;;;;;;;;;;;;;19.76;59.25;99836.16;5047731;28;19928;-70
2022/08/03 03:25:31;;;;;;;;;;;;;;;19.84;58.65;99838.03;5031362;28;20347;-70
2022/08/03 03:27:57;;;;;;;;;;;;;;;19.93;58.51;99843.56;5050649;28;19935;-67
2022/08/03 03:30:24;;;;;;;;;;;;;;;20.03;58.24;99842.34;5056756;28;19928;-68
2022/08/03 03:32:50;;;;;;;;;;;;;;;20.10;57.73;99845.41;5068133;28;20406;-67
2022/08/03 03:35:15;;;;;;;;;;;;;;;20.16;57.38;99843.25;5048570;28;19929;-68
2022/08/03 03:37:41;;;;;;;;;;;;;;;20.25;57.30;99846.75;5046909;28;20002;-67
2022/08/03 03:40:08;;;;;;;;;;;;;;;20.30;56.92;99847.72;5033407;28;19967;-68
2022/08/03 03:42:34;;;;;;;;;;;;;;;20.39;56.55;99845.66;5050099;28;19968;-65
2022/08/03 03:45:02;;;;;;;;;;;;;;;20.44;56.55;99844.63;5048666;28;19982;-68
2022/08/03 03:47:30;;;;;;;;;;;;;;;20.51;56.40;99848.47;5066947;28;19959;-67
2022/08/03 03:49:56;;;;;;;;;;;;;;;20.62;55.94;99853.63;5065457;28;19929;-67
2022/08/03 03:52:22;;;;;;;;;;;;;;;20.72;55.74;99847.63;5035395;28;19935;-67
2022/08/03 03:54:48;;;;;;;;;;;;;;;20.80;55.12;99855.09;5029855;28;19936;-68
2022/08/03 03:57:13;;;;;;;;;;;;;;;20.86;55.06;99861.25;5046697;28;19951;-70
2022/08/03 03:59:40;;;;;;;;;;;;;;;20.89;55.13;99866.13;5049551;28;20478;-66
2022/08/03 04:02:07;;;;;;;;;;;;;;;20.92;54.95;99861.84;5050868;28;19935;-67
2022/08/03 04:12:50;;;;;;;;;;;;;;;21.03;54.21;99863.00;5046373;28;19990;-67
2022/08/03 04:15:16;;;;;;;;;;;;;;;21.03;54.49;99868.56;5033711;28;20404;-67
2022/08/03 04:17:43;;;;;;;;;;;;;;;21.04;54.34;99861.84;5048689;28;19929;-66
2022/08/03 04:20:11;;;;;;;;;;;;;;;21.07;54.30;99863.13;5047975;28;19975;-68
2022/08/03 04:22:38;;;;;;;;;;;;;;;21.08;54.48;99862.81;5031370;28;19928;-65
2022/08/03 04:25:07;;;;;;;;;;;;;;;21.15;54.18;99866.97;5047114;28;19928;-71
2022/08/03 04:27:34;;;;;;;;;;;;;;;21.19;54.24;99863.16;5047745;28;19933;-71
2022/08/03 04:30:01;;;;;;;;;;;;;;;21.23;53.92;99866.88;5046362;28;19929;-70
2022/08/03 04:32:29;;;;;;;;;;;;;;;21.29;54.04;99873.03;5030832;28;19936;-70
2022/08/03 04:34:55;;;;;;;;;;;;;;;21.33;53.94;99871.16;5029705;28;19928;-70
2022/08/03 04:37:25;;;;;;;;;;;;;;;21.34;53.70;99861.66;5028452;28;20245;-70
2022/08/03 04:39:52;;;;;;;;;;;;;;;21.38;53.44;99859.00;5047132;28;19928;-69
2022/08/03 04:42:19;;;;;;;;;;;;;;;21.42;53.34;99865.50;5046938;28;19933;-68
2022/08/03 04:44:46;;;;;;;;;;;;;;;21.44;53.39;99871.50;5031053;28;20277;-67
2022/08/03 04:47:11;;;;;;;;;;;;;;;21.49;53.35;99871.31;5031942;28;20379;-70
2022/08/03 04:49:38;;;;;;;;;;;;;;;21.57;53.16;99871.53;5058003;28;19967;-70
2022/08/03 04:52:04;;;;;;;;;;;;;;;21.63;53.09;99875.72;5056126;28;20395;-69
2022/08/03 04:54:38;;;;;;;;;;;;;;;21.66;53.00;99872.25;5056330;28;19929;-71
2022/08/03 04:57:04;;;;;;;;;;;;;;;21.71;53.09;99872.00;5021738;28;19938;-65
2022/08/03 04:59:30;;;;;;;;;;;;;;;21.77;53.18;99875.38;5051474;28;20035;-67
2022/08/03 05:01:56;;;;;;;;;;;;;;;21.83;53.05;99868.41;5065340;28;19929;-72
2022/08/03 05:04:21;;;;;;;;;;;;;;;21.88;52.70;99861.78;5027909;28;19928;-70
2022/08/03 05:06:47;;;;;;;;;;;;;;;21.93;52.90;99872.66;5046693;28;19936;-70
2022/08/03 05:09:13;;;;;;;;;;;;;;;22.00;52.51;99864.56;5075682;28;19933;-69
2022/08/03 05:11:40;;;;;;;;;;;;;;;22.06;52.49;99867.91;5060534;28;20310;-72
2022/08/03 05:14:06;;;;;;;;;;;;;;;22.13;52.58;99865.31;5065166;28;19935;-70
2022/08/03 05:16:31;;;;;;;;;;;;;;;22.20;52.18;99865.56;5049124;28;20322;-70
2022/08/03 05:18:57;;;;;;;;;;;;;;;22.28;52.13;99863.78;5049593;28;19929;-69
2022/08/03 05:21:23;;;;;;;;;;;;;;;22.33;51.93;99868.31;5068669;28;20395;-69
2022/08/03 05:23:48;;;;;;;;;;;;;;;22.36;52.08;99862.03;5061101;28;19936;-70
2022/08/03 05:26:14;;;;;;;;;;;;;;;22.43;51.54;99867.00;5049922;28;19940;-69
2022/08/03 05:28:41;;;;;;;;;;;;;;;22.49;51.51;99868.38;5056317;28;20358;-71
2022/08/03 05:31:07;;;;;;;;;;;;;;;22.54;51.48;99858.97;5059014;28;20455;-71
2022/08/03 05:33:33;;;;;;;;;;;;;;;22.63;51.54;99867.97;5044825;28;19929;-70
2022/08/03 05:35:58;;;;;;;;;;;;;;;22.74;51.23;99868.28;5068105;28;19975;-70
2022/08/03 05:38:24;;;;;;;;;;;;;;;22.83;51.04;99868.13;5068090;28;19936;-71
2022/08/03 05:40:50;;;;;;;;;;;;;;;22.92;50.73;99883.50;5052333;28;19932;-70
2022/08/03 05:43:16;;;;;;;;;;;;;;;22.96;50.77;99886.41;5076304;28;20322;-71
2022/08/03 05:45:43;;;;;;;;;;;;;;;23.02;50.61;99876.59;5039323;28;20040;-70
2022/08/03 05:48:09;;;;;;;;;;;;;;;23.09;50.64;99879.56;5067753;28;20018;-71
2022/08/03 05:50:35;;;;;;;;;;;;;;;23.15;50.49;99882.09;5061287;28;19951;-67
2022/08/03 05:53:01;;;;;;;;;;;;;;;23.15;50.51;99876.53;5050510;28;19928;-71
2022/08/03 05:55:26;;;;;;;;;;;;;;;23.19;50.23;99877.41;5047047;28;20439;-72
2022/08/03 05:57:52;;;;;;;;;;;;;;;23.20;50.40;99879.84;5026624;28;20373;-70
2022/08/03 06:00:18;;;;;;;;;;;;;;;23.21;50.28;99878.69;5038372;28;20055;-71
2022/08/03 06:02:45;;;;;;;;;;;;;;;23.31;49.94;99880.16;5070787;28;20438;-70
2022/08/03 06:05:11;;;;;;;;;;;;;;;23.44;49.63;99877.28;5052308;28;20322;-70
2022/08/03 06:07:37;;;;;;;;;;;;;;;23.56;49.33;99876.38;5045468;28;20023;-71
2022/08/03 06:10:03;;;;;;;;;;;;;;;23.65;48.86;99875.00;5071527;28;19990;-70
2022/08/03 06:12:30;;;;;;;;;;;;;;;23.73;48.54;99875.97;5053078;28;19928;-66
2022/08/03 06:14:55;;;;;;;;;;;;;;;23.88;48.44;99879.09;5033676;28;19928;-67
2022/08/03 06:17:21;;;;;;;;;;;;;;;24.05;48.13;99870.34;5061556;28;20350;-67
2022/08/03 06:19:50;;;;;;;;;;;;;;;24.29;47.45;99871.28;5054322;28;19980;-67
2022/08/03 06:22:16;;;;;;;;;;;;;;;24.54;46.91;99870.94;5061406;28;19971;-67
2022/08/03 06:24:43;;;;;;;;;;;;;;;24.83;46.14;99874.34;5042412;28;19963;-67
2022/08/03 06:27:08;;;;;;;;;;;;;;;25.09;45.17;99869.19;5058645;28;19951;-67
2022/08/03 06:29:34;;;;;;;;;;;;;;;25.33;44.76;99870.81;5056831;28;20466;-66
2022/08/03 06:32:00;;;;;;;;;;;;;;;25.50;44.29;99875.13;5044425;28;19935;-67
2022/08/03 06:34:25;;;;;;;;;;;;;;;25.65;43.79;99878.94;5048700;28;20357;-68
2022/08/03 06:36:53;;;;;;;;;;;;;;;25.81;43.41;99877.97;5052252;28;19929;-68
2022/08/03 06:39:19;;;;;;;;;;;;;;;25.98;42.77;99885.03;5052653;28;19936;-68
2022/08/03 06:41:45;;;;;;;;;;;;;;;26.07;42.40;99890.38;5034722;28;20019;-68
2022/08/03 06:44:11;;;;;;;;;;;;;;;26.20;42.01;99880.56;5035989;28;20020;-68
2022/08/03 06:46:37;;;;;;;;;;;;;;;26.31;41.71;99881.53;5034297;28;19933;-67
2022/08/03 06:49:03;;;;;;;;;;;;;;;26.41;41.51;99876.44;5032117;28;19936;-69
2022/08/03 06:51:28;;;;;;;;;;;;;;;26.54;41.42;99877.00;5052515;28;19929;-67
2022/08/03 06:53:55;;;;;;;;;;;;;;;26.62;41.58;99875.88;5016948;28;19933;-67
2022/08/03 06:56:21;;;;;;;;;;;;;;;26.75;40.70;99882.00;5052588;28;19982;-67
2022/08/03 06:58:47;;;;;;;;;;;;;;;26.84;40.39;99876.09;5047782;28;19928;-66
2022/08/03 07:01:13;;;;;;;;;;;;;;;26.98;39.93;99883.91;5053631;28;20446;-67
2022/08/03 07:03:39;;;;;;;;;;;;;;;27.09;39.63;99879.22;5071741;28;20031;-67
2022/08/03 07:06:06;;;;;;;;;;;;;;;27.17;39.37;99880.88;5072273;28;20426;-68
2022/08/03 07:08:32;;;;;;;;;;;;;;;27.17;39.46;99880.88;5070761;28;20541;-68
2022/08/03 07:10:59;;;;;;;;;;;;;;;27.20;38.70;99881.28;5070253;28;19928;-67
2022/08/03 07:13:25;;;;;;;;;;;;;;;27.18;38.82;99888.09;5070490;28;20011;-66
2022/08/03 07:15:51;;;;;;;;;;;;;;;27.26;38.26;99882.56;5053713;28;20379;-67
2022/08/03 07:18:16;;;;;;;;;;;;;;;27.43;37.50;99875.47;5070308;28;19929;-67
2022/08/03 07:20:42;;;;;;;;;;;;;;;27.46;37.43;99878.31;5070417;28;19978;-69
2022/08/03 07:23:08;;;;;;;;;;;;;;;27.55;36.94;99877.19;5063117;28;19929;-67
2022/08/03 07:25:34;;;;;;;;;;;;;;;27.60;36.58;99874.03;5051537;28;20304;-68
2022/08/03 07:28:01;;;;;;;;;;;;;;;27.85;36.53;99879.81;5055502;28;19928;-67
2022/08/03 07:30:27;;;;;;;;;;;;;;;28.06;35.80;99878.34;5068483;28;20338;-66
2022/08/03 07:32:53;;;;;;;;;;;;;;;28.22;35.13;99880.03;5060276;28;19936;-67
2022/08/03 07:35:19;;;;;;;;;;;;;;;28.39;35.16;99887.75;5062823;28;19939;-66
2022/08/03 07:37:45;;;;;;;;;;;;;;;28.53;34.16;99886.19;5053149;28;19936;-67
2022/08/03 07:40:10;;;;;;;;;;;;;;;28.58;34.22;99889.44;5069538;28;19929;-67
2022/08/03 07:42:37;;;;;;;;;;;;;;;28.60;34.30;99883.44;5069622;28;20031;-68
2022/08/03 07:45:05;;;;;;;;;;;;;;;28.49;33.28;99883.41;5069372;28;20307;-67
2022/08/03 07:47:31;;;;;;;;;;;;;;;28.40;33.40;99891.38;5066188;28;19928;-67
2022/08/03 07:49:56;;;;;;;;;;;;;;;28.30;33.27;99888.13;5051134;28;19935;-67
2022/08/03 07:55:07;;;;;;;;;;;;;;;28.11;33.83;99891.22;5050289;28;20419;-67
2022/08/03 07:57:33;;;;;;;;;;;;;;;27.79;34.63;99895.44;5032370;28;19979;-68
2022/08/03 07:59:59;;;;;;;;;;;;;;;27.68;34.72;99898.16;5058286;28;19963;-67
2022/08/03 08:02:26;;;;;;;;;;;;;;;27.98;34.28;99893.56;5032741;28;19935;-66
2022/08/03 08:04:52;;;;;;;;;;;;;;;28.63;33.54;99896.69;5050903;28;19928;-67
2022/08/03 08:07:18;;;;;;;;;;;;;;;29.34;32.24;99897.25;5031753;28;20354;-67
2022/08/03 08:09:43;;;;;;;;;;;;;;;30.15;30.84;99890.34;5050807;28;19998;-66
2022/08/03 08:12:11;;;;;;;;;;;;;;;30.84;29.91;99901.38;5018202;28;19933;-72
2022/08/03 08:14:37;;;;;;;;;;;;;;;31.27;29.25;99889.81;5030889;28;20028;-67
2022/08/03 08:17:02;;;;;;;;;;;;;;;31.60;29.13;99895.16;5048353;28;20038;-68
2022/08/03 08:19:30;;;;;;;;;;;;;;;32.03;28.26;99890.34;5049054;28;19929;-67
2022/08/03 08:21:55;;;;;;;;;;;;;;;31.93;28.35;99887.22;5050899;28;19928;-67
2022/08/03 08:24:21;;;;;;;;;;;;;;;30.98;29.59;99898.47;5049629;28;19935;-68
2022/08/03 08:26:47;;;;;;;;;;;;;;;30.20;30.63;99894.78;5048936;28;19929;-67
2022/08/03 08:29:13;;;;;;;;;;;;;;;30.57;29.98;99904.69;5042016;28;19933;-68
2022/08/03 08:31:38;;;;;;;;;;;;;;;31.26;28.96;99896.69;5042485;28;19929;-66
2022/08/03 08:34:06;;;;;;;;;;;;;;;31.50;28.46;99893.25;5050403;28;19959;-65
2022/08/03 08:36:33;;;;;;;;;;;;;;;31.27;28.77;99891.81;5050548;28;19996;-67
2022/08/03 08:38:59;;;;;;;;;;;;;;;31.85;27.74;99891.34;5031966;28;19982;-67
2022/08/03 08:41:25;;;;;;;;;;;;;;;32.62;26.75;99892.06;5048210;28;19932;-66
2022/08/03 08:43:52;;;;;;;;;;;;;;;32.67;26.79;99891.59;5050581;28;19978;-68
2022/08/03 08:46:18;;;;;;;;;;;;;;;32.11;27.14;99886.22;5057704;28;19935;-65
2022/08/03 08:48:45;;;;;;;;;;;;;;;32.45;27.41;99898.75;5049369;28;19929;-67
2022/08/03 08:51:11;;;;;;;;;;;;;;;32.88;26.22;99895.34;5052756;28;20403;-66
2022/08/03 08:53:42;;;;;;;;;;;;;;;33.30;25.83;99900.81;5051326;28;19929;-67
2022/08/03 08:56:14;;;;;;;;;;;;;;;33.26;25.75;99896.44;5044836;28;20043;-67
2022/08/03 08:58:43;;;;;;;;;;;;;;;32.38;27.37;99891.16;5051122;28;19978;-67
2022/08/03 09:01:09;;;;;;;;;;;;;;;31.50;28.21;99898.91;5052198;28;19929;-66
2022/08/03 09:03:35;;;;;;;;;;;;;;;31.61;28.60;99904.47;5048022;28;20410;-68
2022/08/03 09:06:01;;;;;;;;;;;;;;;31.09;28.73;99911.69;5066493;28;20364;-67
2022/08/03 09:08:27;;;;;;;;;;;;;;;30.38;30.04;99908.81;5061776;28;19929;-68
2022/08/03 09:10:55;;;;;;;;;;;;;;;30.31;30.24;99898.38;5063062;28;19997;-67
2022/08/03 09:13:20;;;;;;;;;;;;;;;31.28;28.53;99899.06;5058307;28;20307;-67
2022/08/03 09:15:46;;;;;;;;;;;;;;;32.23;27.77;99899.00;5050622;28;20400;-67
2022/08/03 09:18:14;;;;;;;;;;;;;;;33.29;26.35;99901.25;5057794;28;19939;-67
2022/08/03 09:20:39;;;;;;;;;;;;;;;33.81;25.54;99899.97;5061688;28;20457;-66
2022/08/03 09:23:09;;;;;;;;;;;;;;;33.90;24.95;99896.56;5058562;28;19929;-67
2022/08/03 09:25:36;;;;;;;;;;;;;;;33.33;25.54;99908.47;5056062;28;20023;-67
2022/08/03 09:28:07;;;;;;;;;;;;;;;33.93;24.98;99892.88;5052392;28;19940;-67
2022/08/03 09:30:33;;;;;;;;;;;;;;;34.59;24.37;99910.22;5058636;28;20201;-66
2022/08/03 09:33:00;;;;;;;;;;;;;;;35.20;23.13;99907.25;5029378;28;19959;-68
2022/08/03 09:35:25;;;;;;;;;;;;;;;35.30;23.29;99916.78;5027973;28;19928;-68
2022/08/03 09:38:07;;;;;;;;;;;;;;;35.25;23.01;99903.88;5035856;28;19975;-70
2022/08/03 09:40:35;;;;;;;;;;;;;;;33.83;24.30;99906.00;5050459;28;20410;-66
2022/08/03 09:43:00;;;;;;;;;;;;;;;32.41;26.06;99909.31;5060576;28;19928;-67
2022/08/03 09:45:28;;;;;;;;;;;;;;;31.22;27.75;99914.84;5065339;28;20391;-68
2022/08/03 09:47:55;;;;;;;;;;;;;;;30.83;28.22;99906.22;5069293;28;19928;-67
2022/08/03 09:50:21;;;;;;;;;;;;;;;30.90;28.34;99898.91;5050624;28;19935;-67
2022/08/03 09:52:50;;;;;;;;;;;;;;;31.78;27.45;99899.91;5067331;28;20331;-68
2022/08/03 09:55:19;;;;;;;;;;;;;;;33.47;25.41;99901.78;5047754;28;19960;-67
2022/08/03 09:57:45;;;;;;;;;;;;;;;34.73;23.67;99899.78;5046220;28;20340;-67
2022/08/03 10:00:12;;;;;;;;;;;;;;;35.35;22.97;99902.81;5043497;28;20010;-68
2022/08/03 10:02:40;;;;;;;;;;;;;;;35.58;22.64;99897.41;5037761;28;19928;-67
2022/08/03 10:05:07;;;;;;;;;;;;;;;35.95;22.14;99895.22;5047024;28;19928;-66
2022/08/03 10:07:40;;;;;;;;;;;;;;;35.58;22.70;99897.41;5062273;28;19951;-67
2022/08/03 10:10:07;;;;;;;;;;;;;;;34.24;24.01;99895.53;5061230;28;19982;-68
2022/08/03 10:12:33;;;;;;;;;;;;;;;33.63;25.07;99901.06;5046601;28;19929;-67
2022/08/03 10:14:58;;;;;;;;;;;;;;;34.97;23.67;99902.47;5043117;28;19936;-67
2022/08/03 10:17:24;;;;;;;;;;;;;;;36.04;21.80;99901.06;5054488;28;19928;-68
2022/08/03 10:19:52;;;;;;;;;;;;;;;37.11;21.03;99896.72;5073189;28;19932;-68
2022/08/03 10:22:20;;;;;;;;;;;;;;;37.74;20.21;99899.94;5055259;28;19932;-66
2022/08/03 10:24:48;;;;;;;;;;;;;;;37.83;20.23;99897.13;5071165;28;19940;-66
2022/08/03 10:27:15;;;;;;;;;;;;;;;38.38;19.77;99898.84;5060420;28;19935;-67
2022/08/03 10:29:43;;;;;;;;;;;;;;;38.55;19.58;99905.16;5052214;28;20036;-66
2022/08/03 10:32:13;;;;;;;;;;;;;;;38.65;18.92;99900.31;5052546;28;20017;-69
2022/08/03 10:34:41;;;;;;;;;;;;;;;37.96;19.65;99896.28;5034729;28;19933;-69
2022/08/03 10:37:10;;;;;;;;;;;;;;;37.93;19.83;99903.72;5054558;28;19971;-67
2022/08/03 10:39:36;;;;;;;;;;;;;;;38.30;19.25;99895.47;5038129;28;19935;-66
2022/08/03 10:42:02;;;;;;;;;;;;;;;38.27;19.38;99895.59;5059679;28;20390;-69
2022/08/03 10:44:31;;;;;;;;;;;;;;;38.39;18.70;99903.28;5057449;28;20380;-67
2022/08/03 10:46:57;;;;;;;;;;;;;;;38.39;18.91;99905.34;5056086;28;19929;-67
2022/08/03 10:49:23;;;;;;;;;;;;;;;38.56;18.67;99906.75;5049835;28;19938;-68
2022/08/03 10:51:49;;;;;;;;;;;;;;;38.55;18.59;99907.22;5022834;28;19928;-68
2022/08/03 10:54:33;;;;;;;;;;;;;;;37.95;19.28;99908.97;5053228;28;19982;-68
2022/08/03 10:59:58;;;;;;;;;;;;;;;34.90;22.55;99912.78;5070403;28;19928;-66
2022/08/03 11:02:38;;;;;;;;;;;;;;;33.59;24.15;99910.91;5067576;28;19928;-68
2022/08/03 11:05:19;;;;;;;;;;;;;;;33.00;24.97;99915.84;5062671;28;19929;-67
2022/08/03 11:07:45;;;;;;;;;;;;;;;33.04;24.46;99908.91;5053066;28;19928;-68
2022/08/03 11:10:28;;;;;;;;;;;;;;;34.24;23.54;99906.88;5059063;28;20377;-66
2022/08/03 11:13:04;;;;;;;;;;;;;;;35.05;22.59;99915.31;5063731;28;19936;-68
2022/08/03 11:15:32;;;;;;;;;;;;;;;34.55;23.23;99909.50;5055916;28;19929;-66
2022/08/03 11:18:09;;;;;;;;;;;;;;;34.82;22.80;99916.22;5064423;28;19928;-67
2022/08/03 11:20:47;;;;;;;;;;;;;;;35.69;21.36;99912.13;5054666;28;19929;-67
2022/08/03 11:23:13;;;;;;;;;;;;;;;36.06;21.18;99912.00;5056169;28;19932;-67
2022/08/03 11:25:57;;;;;;;;;;;;;;;35.29;22.30;99918.78;5071199;28;19974;-68
2022/08/03 11:28:28;;;;;;;;;;;;;;;34.25;23.05;99907.66;5060677;28;19925;-68
2022/08/03 11:30:54;;;;;;;;;;;;;;;33.49;24.19;99907.03;5032227;28;19928;-68
2022/08/03 11:33:28;;;;;;;;;;;;;;;32.82;25.30;99919.72;5050051;28;19994;-68
2022/08/03 11:35:58;;;;;;;;;;;;;;;32.24;25.87;99912.72;5032216;28;19995;-66
2022/08/03 11:38:23;;;;;;;;;;;;;;;31.76;26.29;99914.41;5050979;28;19968;-67
2022/08/03 11:40:50;;;;;;;;;;;;;;;32.10;25.96;99910.06;5048529;28;19964;-68
2022/08/03 11:43:36;;;;;;;;;;;;;;;32.64;25.42;99908.63;5053221;28;19948;-66
2022/08/03 11:46:05;;;;;;;;;;;;;;;32.49;25.32;99905.19;5050025;28;19929;-67
2022/08/03 11:48:33;;;;;;;;;;;;;;;32.25;25.91;99905.03;5047733;28;20057;-68
2022/08/03 11:50:59;;;;;;;;;;;;;;;32.03;26.16;99899.63;5049891;28;19929;-67
2022/08/03 11:53:25;;;;;;;;;;;;;;;31.63;26.85;99896.38;5049777;28;19928;-67
2022/08/03 11:55:52;;;;;;;;;;;;;;;31.60;27.24;99912.13;5051614;28;20449;-68
2022/08/03 11:58:19;;;;;;;;;;;;;;;31.62;26.96;99906.06;5058865;28;20379;-67
2022/08/03 12:00:45;;;;;;;;;;;;;;;31.57;26.96;99910.13;5059188;28;19928;-68
2022/08/03 12:03:14;;;;;;;;;;;;;;;31.55;27.31;99904.09;5050573;28;19958;-67
2022/08/03 12:05:44;;;;;;;;;;;;;;;31.66;27.22;99899.16;5050467;28;19929;-67
2022/08/03 12:08:11;;;;;;;;;;;;;;;31.68;27.33;99902.38;5057935;28;20414;-67
2022/08/03 12:10:38;;;;;;;;;;;;;;;31.53;27.37;99901.72;5049193;28;20010;-67
2022/08/03 12:13:10;;;;;;;;;;;;;;;31.47;27.80;99899.75;5049142;28;20388;-67
2022/08/03 12:15:37;;;;;;;;;;;;;;;31.63;27.40;99893.53;5050260;28;19928;-67
2022/08/03 12:18:11;;;;;;;;;;;;;;;33.31;25.21;99893.91;5049729;28;19929;-67
2022/08/03 12:20:38;;;;;;;;;;;;;;;34.45;23.94;99896.31;5068839;28;20315;-67
2022/08/03 12:23:05;;;;;;;;;;;;;;;34.98;23.49;99899.22;5068087;28;19934;-70
2022/08/03 12:25:31;;;;;;;;;;;;;;;34.79;23.39;99898.84;5060679;28;20359;-67
2022/08/03 12:28:05;;;;;;;;;;;;;;;34.17;24.36;99895.66;5051017;28;19959;-67
2022/08/03 12:30:31;;;;;;;;;;;;;;;33.46;25.02;99891.69;5049636;28;19982;-67
2022/08/03 12:32:57;;;;;;;;;;;;;;;33.26;25.21;99900.06;5065709;28;19932;-67
2022/08/03 12:35:24;;;;;;;;;;;;;;;34.67;23.25;99893.06;5040503;28;19932;-67
2022/08/03 12:37:51;;;;;;;;;;;;;;;36.57;21.38;99890.63;5051620;28;19929;-66
2022/08/03 12:40:23;;;;;;;;;;;;;;;37.99;19.71;99890.50;5064181;28;19928;-67
2022/08/03 12:42:49;;;;;;;;;;;;;;;37.82;19.58;99900.47;5035623;28;20357;-66
2022/08/03 12:45:19;;;;;;;;;;;;;;;38.00;19.65;99889.25;5067468;28;19932;-67
2022/08/03 12:47:52;;;;;;;;;;;;;;;38.79;19.23;99895.25;5044140;28;20411;-66
2022/08/03 12:50:25;;;;;;;;;;;;;;;39.70;18.34;99896.03;5053241;28;19929;-67
2022/08/03 12:52:52;;;;;;;;;;;;;;;40.22;17.50;99900.34;5060614;28;19928;-68
2022/08/03 12:55:19;;;;;;;;;;;;;;;39.90;17.65;99903.38;5064254;28;19989;-68
2022/08/03 12:57:44;;;;;;;;;;;;;;;39.62;18.12;99900.47;5064649;28;19928;-68
2022/08/03 13:00:11;;;;;;;;;;;;;;;39.53;17.79;99897.59;5035388;28;19979;-67
2022/08/03 13:02:37;;;;;;;;;;;;;;;39.53;18.32;99898.38;5063529;28;19928;-67